createdAt,value
2023-03-22T00:01:43.200Z,12.00
2023-03-22T00:05:25.369Z,12.00
2023-03-22T00:09:07.180Z,11.90
2023-03-22T00:12:49.042Z,11.90
2023-03-22T00:16:30.873Z,11.90
2023-03-22T00:20:13.095Z,11.80
2023-03-22T00:23:54.965Z,11.80
2023-03-22T00:27:36.840Z,11.90
2023-03-22T00:31:19.986Z,11.80
2023-03-22T00:35:02.708Z,11.80
2023-03-22T00:38:45.042Z,11.80
2023-03-22T00:42:27.362Z,11.80
2023-03-22T00:46:10.360Z,11.80
2023-03-22T00:49:52.245Z,11.70
2023-03-22T00:53:36.385Z,11.70
2023-03-22T00:57:18.630Z,11.70
2023-03-22T01:01:00.686Z,11.70
2023-03-22T01:04:48.036Z,11.60
2023-03-22T01:08:33.480Z,11.60
2023-03-22T01:12:16.577Z,11.60
2023-03-22T01:15:58.392Z,11.50
2023-03-22T01:19:40.538Z,11.40
2023-03-22T01:23:22.417Z,11.50
2023-03-22T01:27:05.926Z,11.40
2023-03-22T01:30:47.810Z,11.50
2023-03-22T01:34:29.724Z,11.40
2023-03-22T01:38:11.659Z,11.50
2023-03-22T01:41:53.658Z,11.40
2023-03-22T01:45:39.747Z,11.40
2023-03-22T01:49:21.659Z,11.40
2023-03-22T01:53:05.580Z,11.40
2023-03-22T01:56:48.226Z,11.40
2023-03-22T02:00:30.261Z,11.30
2023-03-22T02:04:20.076Z,11.30
2023-03-22T02:08:02.812Z,11.30
2023-03-22T02:11:52.412Z,11.30
2023-03-22T02:16:01.588Z,11.30
2023-03-22T02:20:04.689Z,11.20
2023-03-22T02:23:55.402Z,11.20
2023-03-22T02:27:52.318Z,11.20
2023-03-22T02:31:59.001Z,11.20
2023-03-22T02:35:53.060Z,11.20
2023-03-22T02:39:57.886Z,11.20
2023-03-22T02:43:50.944Z,11.20
2023-03-22T02:47:56.795Z,11.20
2023-03-22T02:52:03.245Z,11.20
2023-03-22T02:55:57.692Z,11.10
2023-03-22T02:59:43.381Z,11.10
2023-03-22T03:03:29.363Z,11.10
2023-03-22T03:07:16.551Z,11.00
2023-03-22T03:10:58.603Z,11.10
2023-03-22T03:14:40.965Z,11.10
2023-03-22T03:18:54.283Z,11.10
2023-03-22T03:23:08.502Z,11.00
2023-03-22T03:26:58.669Z,11.00
2023-03-22T03:31:18.937Z,11.00
2023-03-22T03:35:06.765Z,11.00
2023-03-22T03:38:52.602Z,11.00
2023-03-22T03:42:37.697Z,11.10
2023-03-22T03:46:21.123Z,11.00
2023-03-22T03:50:04.464Z,11.10
2023-03-22T03:53:47.163Z,11.10
2023-03-22T03:57:28.944Z,11.10
2023-03-22T04:01:10.834Z,11.10
2023-03-22T04:04:52.681Z,11.10
2023-03-22T04:08:34.572Z,11.10
2023-03-22T04:12:16.467Z,11.20
2023-03-22T04:16:02.071Z,11.20
2023-03-22T04:19:45.718Z,11.10
2023-03-22T04:23:27.529Z,11.20
2023-03-22T04:27:09.712Z,11.20
2023-03-22T04:30:52.509Z,11.20
2023-03-22T04:34:34.361Z,11.20
2023-03-22T04:38:16.915Z,11.20
2023-03-22T04:41:58.742Z,11.20
2023-03-22T04:45:42.195Z,11.30
2023-03-22T04:49:24.167Z,11.30
2023-03-22T04:53:07.070Z,11.30
2023-03-22T04:56:48.901Z,11.30
2023-03-22T05:00:30.761Z,11.40
2023-03-22T05:04:12.688Z,11.40
2023-03-22T05:07:54.501Z,11.40
2023-03-22T05:11:36.537Z,11.40
2023-03-22T05:15:18.360Z,11.40
2023-03-22T05:19:02.352Z,11.40
2023-03-22T05:22:45.918Z,11.40
2023-03-22T05:26:27.798Z,11.40
2023-03-22T05:30:10.037Z,11.40
2023-03-22T05:33:52.376Z,11.40
2023-03-22T05:37:34.182Z,11.50
2023-03-22T05:41:16.045Z,11.40
2023-03-22T05:44:57.847Z,11.50
2023-03-22T05:48:41.121Z,11.50
2023-03-22T05:52:22.976Z,11.50
2023-03-22T05:56:05.125Z,11.50
2023-03-22T05:59:46.949Z,11.60
2023-03-22T06:03:28.857Z,11.60
2023-03-22T06:07:10.955Z,11.60
2023-03-22T06:10:53.727Z,11.60
2023-03-22T06:14:35.690Z,11.60
2023-03-22T06:18:17.713Z,11.60
2023-03-22T06:21:59.604Z,11.60
2023-03-22T06:25:41.425Z,11.60
2023-03-22T06:29:23.215Z,11.60
2023-03-22T06:33:06.171Z,11.70
2023-03-22T06:36:48.102Z,11.70
2023-03-22T06:40:29.957Z,11.70
2023-03-22T06:44:12.211Z,11.80
2023-03-22T06:47:54.081Z,11.80
2023-03-22T06:51:36.076Z,11.80
2023-03-22T06:55:17.971Z,11.80
2023-03-22T06:58:59.759Z,11.80
2023-03-22T07:02:41.577Z,11.80
2023-03-22T07:06:23.417Z,11.80
2023-03-22T07:10:07.818Z,11.80
2023-03-22T07:13:49.633Z,11.70
2023-03-22T07:17:31.432Z,11.60
2023-03-22T07:21:13.241Z,11.60
2023-03-22T07:24:57.814Z,11.60
2023-03-22T07:28:41.630Z,11.60
2023-03-22T07:32:23.618Z,11.60
2023-03-22T07:36:06.801Z,11.60
2023-03-22T07:39:48.719Z,11.60
2023-03-22T07:43:30.565Z,11.60
2023-03-22T07:47:12.373Z,11.60
2023-03-22T07:50:57.455Z,11.60
2023-03-22T07:54:39.293Z,11.70
2023-03-22T07:58:21.281Z,11.70
2023-03-22T08:02:03.919Z,11.80
2023-03-22T08:05:45.826Z,11.80
2023-03-22T08:09:28.352Z,11.90
2023-03-22T08:13:10.583Z,11.90
2023-03-22T08:16:52.403Z,12.00
2023-03-22T08:20:34.624Z,12.00
2023-03-22T08:24:16.406Z,12.10
2023-03-22T08:27:58.233Z,12.20
2023-03-22T08:31:40.072Z,12.20
2023-03-22T08:35:21.961Z,12.30
2023-03-22T08:39:05.072Z,12.20
2023-03-22T08:42:46.859Z,12.20
2023-03-22T08:46:28.687Z,12.20
2023-03-22T08:50:12.023Z,12.20
2023-03-22T08:53:53.868Z,12.20
2023-03-22T08:57:38.770Z,12.20
2023-03-22T09:01:21.310Z,12.30
2023-03-22T09:05:03.325Z,12.60
2023-03-22T09:08:45.325Z,13.00
2023-03-22T09:12:27.719Z,13.40
2023-03-22T09:16:09.843Z,14.00
2023-03-22T09:20:00.166Z,14.60
2023-03-22T09:23:51.455Z,15.00
2023-03-22T09:27:33.843Z,15.10
2023-03-22T09:31:18.004Z,15.30
2023-03-22T09:35:01.777Z,15.60
2023-03-22T09:38:43.629Z,16.00
2023-03-22T09:42:47.503Z,16.50
2023-03-22T09:46:36.900Z,17.00
2023-03-22T09:50:30.026Z,17.40
2023-03-22T09:54:19.555Z,17.80
2023-03-22T09:58:26.024Z,18.40
2023-03-22T10:02:26.525Z,19.10
2023-03-22T10:06:29.547Z,19.70
2023-03-22T10:10:22.616Z,20.30
2023-03-22T10:14:28.548Z,20.90
2023-03-22T10:18:27.923Z,21.30
2023-03-22T10:22:15.348Z,21.40
2023-03-22T10:25:58.979Z,21.50
2023-03-22T10:29:44.523Z,21.60
2023-03-22T10:33:55.303Z,21.70
2023-03-22T10:37:39.228Z,22.10
2023-03-22T10:41:24.348Z,22.40
2023-03-22T10:45:12.248Z,22.50
2023-03-22T10:48:58.697Z,22.80
2023-03-22T10:52:51.531Z,23.40
2023-03-22T10:56:33.366Z,23.80
2023-03-22T11:00:17.575Z,24.20
2023-03-22T11:04:10.984Z,24.50
2023-03-22T11:07:53.177Z,24.50
2023-03-22T11:11:38.666Z,24.80
2023-03-22T11:15:32.621Z,25.30
2023-03-22T11:19:28.066Z,25.90
2023-03-22T11:23:18.079Z,25.90
2023-03-22T11:27:24.721Z,25.70
2023-03-22T11:31:18.544Z,25.80
2023-03-22T11:35:22.115Z,26.40
2023-03-22T11:39:07.933Z,26.80
2023-03-22T11:42:56.028Z,27.00
2023-03-22T11:46:38.648Z,27.20
2023-03-22T11:50:31.233Z,27.10
2023-03-22T11:54:35.599Z,26.40
2023-03-22T11:58:29.589Z,25.90
2023-03-22T12:02:20.588Z,25.90
2023-03-22T12:06:05.359Z,25.80
2023-03-22T12:10:01.950Z,25.20
2023-03-22T12:13:49.822Z,24.40
2023-03-22T12:17:50.258Z,23.60
2023-03-22T12:21:32.533Z,22.70
2023-03-22T12:25:21.378Z,21.90
2023-03-22T12:29:15.044Z,21.20
2023-03-22T12:33:01.715Z,20.60
2023-03-22T12:36:51.179Z,20.00
2023-03-22T12:40:37.218Z,19.60
2023-03-22T12:44:39.265Z,19.30
2023-03-22T12:48:26.397Z,19.10
2023-03-22T12:52:45.237Z,18.90
2023-03-22T12:56:46.458Z,18.80
2023-03-22T13:00:36.226Z,18.60
2023-03-22T13:04:34.725Z,18.40
2023-03-22T13:08:21.659Z,18.30
2023-03-22T13:12:18.510Z,18.10
2023-03-22T13:16:09.365Z,18.20
2023-03-22T13:20:07.748Z,18.60
2023-03-22T13:24:09.933Z,19.20
2023-03-22T13:28:03.611Z,20.10
2023-03-22T13:32:02.138Z,20.60
2023-03-22T13:35:48.929Z,20.80
2023-03-22T13:39:36.076Z,20.80
2023-03-22T13:43:20.786Z,20.50
2023-03-22T13:47:03.038Z,20.10
2023-03-22T13:50:45.914Z,19.70
2023-03-22T13:54:38.756Z,19.30
2023-03-22T13:58:45.405Z,19.10
2023-03-22T14:02:33.707Z,18.80
2023-03-22T14:06:31.850Z,18.60
2023-03-22T14:10:21.231Z,18.50
2023-03-22T14:14:15.818Z,18.20
2023-03-22T14:18:06.311Z,17.90
